ADDS METAR Data INFO
IDs: Format: Raw Decoded Include TAF

Data at: 1611 UTC 14 Aug 2018

KHOE 141555Z AUTO 00000KT 10SM SCT025 BKN032 BKN039 29/23 A3006 RMK AO2
KHOE 141535Z AUTO 22008KT 170V250 10SM SCT023 30/23 A3006 RMK AO2
KHOE 141515Z AUTO 22006KT 10SM SCT023 29/23 A3006 RMK AO2
KHOE 141455Z AUTO 20006KT 10SM SCT016 28/23 A3006 RMK AO2
KHOE 141435Z AUTO 22003KT 10SM BKN014 28/24 A3007 RMK AO2
KHOE 141415Z AUTO 25006KT 10SM BKN010 OVC016 27/24 A3007 RMK AO2
KHOE 141355Z AUTO 24005KT 10SM BKN008 BKN012 26/24 A3006 RMK AO2
KHOE 141335Z AUTO 00000KT 10SM BKN006 25/24 A3006 RMK AO2
KHOE 141315Z AUTO 00000KT 7SM BKN004 OVC008 24/24 A3006 RMK AO2
KHOE 141255Z AUTO 21004KT 3SM BR OVC002 23/23 A3006 RMK AO2
KHOE 141235Z AUTO 00000KT 1/4SM FG OVC002 23/23 A3006 RMK AO2
KHOE 141215Z AUTO 00000KT 1/2SM FG OVC002 23/23 A3006 RMK AO2
KHOE 141155Z AUTO 16004KT 1/2SM FG OVC002 23/23 A3005 RMK AO2
KHOE 141135Z AUTO 00000KT 1/4SM FG OVC002 23/23 A3004 RMK AO2
KHOE 141115Z AUTO 21003KT 3/4SM BR OVC002 23/23 A3004 RMK AO2
KHOE 141055Z AUTO 00000KT 4SM BR OVC002 23/23 A3003 RMK AO2
KHOE 141035Z AUTO 00000KT 5SM BR BKN002 23/23 A3003 RMK AO2
KHOE 141015Z AUTO 00000KT 7SM SCT002 23/23 A3003 RMK AO2
KHOE 140955Z AUTO 00000KT 7SM CLR 23/23 A3002 RMK AO2
KHOE 140935Z AUTO 17004KT 10SM CLR 23/23 A3002 RMK AO2
KHOE 140915Z AUTO 00000KT 10SM CLR 23/22 A3002 RMK AO2
KHOE 140855Z AUTO 16004KT 10SM CLR 23/23 A3003 RMK AO2
KHOE 140835Z AUTO 15004KT 10SM CLR 22/22 A3003 RMK AO2
KHOE 140815Z AUTO 00000KT 10SM CLR 22/22 A3003 RMK AO2
KHOE 140755Z AUTO 00000KT 10SM CLR 22/22 A3003 RMK AO2
KHOE 140735Z AUTO 00000KT 7SM CLR 22/22 A3003 RMK AO2
KHOE 140715Z AUTO 15003KT 10SM CLR 22/22 A3003 RMK AO2
KHOE 140655Z AUTO 00000KT 10SM CLR 22/22 A3004 RMK AO2
KHOE 140635Z AUTO 00000KT 10SM SCT024 22/22 A3004 RMK AO2 LTG DSNT SW
KHOE 140615Z AUTO 19003KT 10SM SCT021 22/22 A3004 RMK AO2
KHOE 140555Z AUTO 00000KT 10SM SCT021 22/22 A3004 RMK AO2
KHOE 140535Z AUTO 00000KT 7SM CLR 22/22 A3005 RMK AO2
KHOE 140515Z AUTO 00000KT 7SM CLR 22/22 A3005 RMK AO2
KHOE 140455Z AUTO 00000KT 7SM CLR 22/22 A3005 RMK AO2 LTG DSNT SW
KHOE 140435Z AUTO 00000KT 7SM CLR 22/22 A3005 RMK AO2
KHOE 140415Z AUTO 00000KT 10SM CLR 23/23 A3005 RMK AO2
KHOE 140355Z AUTO 00000KT 10SM CLR 23/23 A3004 RMK AO2
KHOE 140335Z AUTO 00000KT 7SM CLR 23/23 A3004 RMK AO2
KHOE 140315Z AUTO 00000KT 10SM CLR 23/23 A3004 RMK AO2
KHOE 140255Z AUTO 00000KT 10SM CLR 23/23 A3004 RMK AO2
KHOE 140235Z AUTO 00000KT 10SM CLR 23/23 A3003 RMK AO2
KHOE 140215Z AUTO 00000KT 7SM CLR 23/23 A3003 RMK AO2
KHOE 140155Z AUTO 00000KT 7SM CLR 23/23 A3003 RMK AO2
KHOE 140135Z AUTO 00000KT 10SM CLR 24/23 A3003 RMK AO2
KHOE 140115Z AUTO 25005KT 7SM CLR 23/23 A3003 RMK AO2
KHOE 140055Z AUTO 03005KT 7SM CLR 24/23 A3003 RMK AO2 LTG DSNT W
KHOE 140035Z AUTO 00000KT 10SM CLR 24/23 A3001 RMK AO2
KHOE 140015Z AUTO 00000KT 10SM SCT031 24/23 A3001 RMK AO2
KHOE 132355Z AUTO 26007KT 7SM -DZ SCT033 BKN045 BKN055 23/23 A3003 RMK AO2
KHOE 132335Z AUTO 00000KT 10SM -TSRA SCT028 BKN049 OVC110 24/23 A3004 RMK AO2 LTG DSNT SE AND W
KHOE 132315Z AUTO 11003KT 3SM RA SCT012 BKN025 OVC030 23/23 A3003 RMK AO2 LTG DSNT W THRU E
KHOE 132255Z AUTO 09007KT 1 3/4SM +VCTSRA BKN009 OVC016 24/23 A3002 RMK AO2 LTG DSNT ALQS
KHOE 132235Z AUTO 00000KT 1/2SM +VCTSRA BKN009 OVC019 24/23 A3002 RMK AO2 LTG DSNT ALQS
KHOE 132215Z AUTO 02009KT 10SM TSRA SCT031 OVC049 27/22 A3002 RMK AO2 LTG DSNT ALQS
KHOE 132155Z AUTO 03003KT 10SM VCTS BKN047 OVC080 27/22 A3000 RMK AO2 LTG DSNT ALQS
KHOE 132135Z AUTO 15006KT 10SM TS SCT042 OVC050 27/22 A3000 RMK AO2 LTG DSNT ALQS
KHOE 132115Z AUTO 15008KT 10SM TS BKN050 BKN075 BKN080 28/22 A2998 RMK AO2 LTG DSNT ALQS
KHOE 132055Z AUTO 16010G16KT 10SM TS SCT049 BKN075 BKN090 30/22 A2999 RMK AO2 LTG DSNT ALQS
KHOE 132035Z AUTO 16009G14KT 130V190 10SM TS SCT049 30/23 A2998 RMK AO2 LTG DSNT ALQS
KHOE 132015Z AUTO 21008KT 10SM TS SCT023 SCT032 SCT047 31/24 A2998 RMK AO2 LTG DSNT ALQS
KHOE 131955Z AUTO 30006KT 10SM VCTSRA SCT023 BKN045 OVC100 32/23 A2998 RMK AO2 LTG DSNT E THRU SW
KHOE 131935Z AUTO 28007KT 10SM BKN042 BKN049 BKN055 32/23 A2999 RMK AO2 LTG DSNT E AND SW
KHOE 131915Z AUTO 19005KT 10SM SCT040 SCT055 BKN090 32/23 A3000 RMK AO2 LTG DSNT E AND SW
KHOE 131855Z AUTO 24004KT 10SM BKN041 BKN055 BKN070 32/23 A3000 RMK AO2 LTG DSNT E THRU SW
KHOE 131835Z AUTO 24005KT 10SM SCT044 SCT060 BKN070 32/23 A3001 RMK AO2
KHOE 131815Z AUTO 25003KT 10SM SCT048 BKN060 BKN080 32/23 A3002 RMK AO2 LTG DSNT S
KHOE 131755Z AUTO 00000KT 10SM SCT046 SCT060 32/23 A3002 RMK AO2
KHOE 131735Z AUTO 20004KT 10SM SCT034 SCT046 SCT060 32/23 A3003 RMK AO2
KHOE 131715Z AUTO 26005KT 10SM BKN034 BKN046 BKN060 32/23 A3004 RMK AO2
KHOE 131655Z AUTO 20003KT 10SM SCT034 32/23 A3005 RMK AO2 LTG DSNT SE
KHOE 131635Z AUTO 19004KT 10SM CLR 31/23 A3005 RMK AO2
KHOE 131615Z AUTO 28003KT 10SM CLR 31/23 A3005 RMK AO2 LTG DSNT SE
KHOE 131555Z AUTO 00000KT 10SM CLR 31/23 A3006 RMK AO2
KHOE 131535Z AUTO 25004KT 10SM CLR 30/23 A3007 RMK AO2
KHOE 131515Z AUTO 28003KT 10SM CLR 30/24 A3007 RMK AO2
KHOE 131455Z AUTO 25004KT 10SM CLR 29/23 A3007 RMK AO2
KHOE 131435Z AUTO 23006KT 10SM CLR 29/24 A3006 RMK AO2
KHOE 131415Z AUTO 26007KT 10SM CLR 28/23 A3007 RMK AO2
KHOE 131355Z AUTO 25003KT 10SM SCT050 28/24 A3007 RMK AO2
KHOE 131335Z AUTO 23003KT 10SM SCT010 BKN050 27/24 A3007 RMK AO2
KHOE 131315Z AUTO 24003KT 10SM SCT008 26/23 A3007 RMK AO2
KHOE 131255Z AUTO 22004KT 10SM SCT006 25/23 A3006 RMK AO2
KHOE 131235Z AUTO 21004KT 10SM SCT004 25/23 A3006 RMK AO2 LTG DSNT SW
KHOE 131215Z AUTO 00000KT 10SM SCT004 23/23 A3006 RMK AO2
KHOE 131155Z AUTO 19003KT 10SM CLR 23/23 A3005 RMK AO2
KHOE 131135Z AUTO 00000KT 10SM CLR 23/23 A3005 RMK AO2
KHOE 131115Z AUTO 00000KT 10SM CLR 23/23 A3004 RMK AO2 LTG DSNT S
KHOE 131055Z AUTO 00000KT 10SM CLR 23/23 A3003 RMK AO2 LTG DSNT SW
KHOE 131035Z AUTO 00000KT 10SM SCT120 23/23 A3003 RMK AO2 LTG DSNT SW
KHOE 131015Z AUTO 00000KT 10SM BKN120 23/22 A3003 RMK AO2 LTG DSNT SW
KHOE 130955Z AUTO 21003KT 10SM BKN120 23/22 A3002 RMK AO2
KHOE 130935Z AUTO 00000KT 10SM BKN110 23/22 A3002 RMK AO2
KHOE 130915Z AUTO 00000KT 10SM OVC110 23/22 A3003 RMK AO2
KHOE 130855Z AUTO 00000KT 10SM BKN110 23/23 A3003 RMK AO2
KHOE 130835Z AUTO 00000KT 10SM CLR 23/23 A3003 RMK AO2
KHOE 130815Z AUTO 00000KT 10SM CLR 23/22 A3002 RMK AO2
KHOE 130755Z AUTO 00000KT 10SM CLR 23/22 A3002 RMK AO2
KHOE 130735Z AUTO 17004KT 10SM CLR 23/22 A3002 RMK AO2
KHOE 130715Z AUTO 00000KT 10SM CLR 23/23 A3000 RMK AO2
KHOE 130655Z AUTO 00000KT 10SM CLR 23/23 A3000 RMK AO2
KHOE 130635Z AUTO 00000KT 10SM CLR 23/23 A3001 RMK AO2
KHOE 130615Z AUTO 00000KT 10SM CLR 23/23 A3002 RMK AO2
KHOE 130555Z AUTO 29003KT 10SM CLR 23/23 A3002 RMK AO2
KHOE 130535Z AUTO 25003KT 10SM CLR 24/22 A3004 RMK AO2
KHOE 130515Z AUTO 00000KT 10SM CLR 23/23 A3005 RMK AO2
KHOE 130455Z AUTO 00000KT 10SM CLR 24/23 A3005 RMK AO2
KHOE 130435Z AUTO 00000KT 10SM CLR 24/22 A3006 RMK AO2
KHOE 130415Z AUTO 16004KT 10SM SCT049 25/22 A3007 RMK AO2